sensor_id;sensor_type;location;lat;lon;timestamp;P1;durP1;ratioP1;P2;durP2;ratioP2
9675;SDS011;4876;42.656;23.292;2023-02-22T00:01:24;24.67;;;11.83;;
9675;SDS011;4876;42.656;23.292;2023-02-22T00:04:00;21.13;;;11.67;;
9675;SDS011;4876;42.656;23.292;2023-02-22T00:06:28;24.20;;;12.50;;
9675;SDS011;4876;42.656;23.292;2023-02-22T00:08:56;21.77;;;12.20;;
9675;SDS011;4876;42.656;23.292;2023-02-22T00:11:23;20.43;;;11.77;;
9675;SDS011;4876;42.656;23.292;2023-02-22T00:13:50;20.60;;;11.63;;
9675;SDS011;4876;42.656;23.292;2023-02-22T00:16:21;17.37;;;9.90;;
9675;SDS011;4876;42.656;23.292;2023-02-22T00:18:49;15.83;;;9.80;;
9675;SDS011;4876;42.656;23.292;2023-02-22T00:21:18;18.20;;;10.10;;
9675;SDS011;4876;42.656;23.292;2023-02-22T00:23:46;18.93;;;10.13;;
9675;SDS011;4876;42.656;23.292;2023-02-22T00:26:15;18.40;;;10.23;;
9675;SDS011;4876;42.656;23.292;2023-02-22T00:28:44;17.87;;;10.23;;
9675;SDS011;4876;42.656;23.292;2023-02-22T00:31:11;16.93;;;9.53;;
9675;SDS011;4876;42.656;23.292;2023-02-22T00:33:39;18.13;;;9.10;;
9675;SDS011;4876;42.656;23.292;2023-02-22T00:36:06;15.00;;;8.47;;
9675;SDS011;4876;42.656;23.292;2023-02-22T00:38:35;21.43;;;8.97;;
9675;SDS011;4876;42.656;23.292;2023-02-22T00:41:02;14.73;;;8.33;;
9675;SDS011;4876;42.656;23.292;2023-02-22T00:43:29;20.60;;;9.33;;
9675;SDS011;4876;42.656;23.292;2023-02-22T00:45:56;22.03;;;9.40;;
9675;SDS011;4876;42.656;23.292;2023-02-22T00:48:22;20.77;;;9.20;;
9675;SDS011;4876;42.656;23.292;2023-02-22T00:50:49;23.70;;;10.30;;
9675;SDS011;4876;42.656;23.292;2023-02-22T00:53:19;23.27;;;9.03;;
9675;SDS011;4876;42.656;23.292;2023-02-22T00:55:48;18.87;;;9.20;;
9675;SDS011;4876;42.656;23.292;2023-02-22T00:58:15;14.30;;;8.20;;
9675;SDS011;4876;42.656;23.292;2023-02-22T01:00:42;12.93;;;7.33;;
9675;SDS011;4876;42.656;23.292;2023-02-22T01:03:11;21.07;;;7.17;;
9675;SDS011;4876;42.656;23.292;2023-02-22T01:05:40;21.90;;;9.37;;
9675;SDS011;4876;42.656;23.292;2023-02-22T01:08:08;13.70;;;6.53;;
9675;SDS011;4876;42.656;23.292;2023-02-22T01:10:36;18.20;;;8.13;;
9675;SDS011;4876;42.656;23.292;2023-02-22T01:13:06;20.43;;;7.40;;
9675;SDS011;4876;42.656;23.292;2023-02-22T01:15:37;23.73;;;5.97;;
9675;SDS011;4876;42.656;23.292;2023-02-22T01:18:05;23.10;;;5.60;;
9675;SDS011;4876;42.656;23.292;2023-02-22T01:20:32;25.20;;;6.07;;
9675;SDS011;4876;42.656;23.292;2023-02-22T01:23:00;14.43;;;5.93;;
9675;SDS011;4876;42.656;23.292;2023-02-22T01:25:30;18.23;;;4.50;;
9675;SDS011;4876;42.656;23.292;2023-02-22T01:27:58;8.50;;;3.63;;
9675;SDS011;4876;42.656;23.292;2023-02-22T01:30:28;8.37;;;3.70;;
9675;SDS011;4876;42.656;23.292;2023-02-22T01:32:57;20.43;;;4.50;;
9675;SDS011;4876;42.656;23.292;2023-02-22T01:35:25;8.43;;;3.37;;
9675;SDS011;4876;42.656;23.292;2023-02-22T01:37:53;9.10;;;3.80;;
9675;SDS011;4876;42.656;23.292;2023-02-22T01:40:21;14.23;;;6.10;;
9675;SDS011;4876;42.656;23.292;2023-02-22T01:42:50;15.10;;;6.80;;
9675;SDS011;4876;42.656;23.292;2023-02-22T01:48:28;16.80;;;7.03;;
9675;SDS011;4876;42.656;23.292;2023-02-22T01:51:00;22.00;;;7.87;;
9675;SDS011;4876;42.656;23.292;2023-02-22T01:53:36;19.13;;;8.30;;
9675;SDS011;4876;42.656;23.292;2023-02-22T01:56:06;15.37;;;8.43;;
9675;SDS011;4876;42.656;23.292;2023-02-22T01:58:34;13.57;;;7.80;;
9675;SDS011;4876;42.656;23.292;2023-02-22T02:01:04;16.27;;;8.30;;
9675;SDS011;4876;42.656;23.292;2023-02-22T02:03:32;15.40;;;8.80;;
9675;SDS011;4876;42.656;23.292;2023-02-22T02:06:04;16.43;;;7.90;;
9675;SDS011;4876;42.656;23.292;2023-02-22T02:08:38;28.37;;;7.73;;
9675;SDS011;4876;42.656;23.292;2023-02-22T02:11:14;17.00;;;8.57;;
9675;SDS011;4876;42.656;23.292;2023-02-22T02:13:43;15.40;;;8.37;;
9675;SDS011;4876;42.656;23.292;2023-02-22T02:16:11;18.80;;;8.07;;
9675;SDS011;4876;42.656;23.292;2023-02-22T02:18:38;14.40;;;7.83;;
9675;SDS011;4876;42.656;23.292;2023-02-22T02:24:11;28.43;;;8.83;;
9675;SDS011;4876;42.656;23.292;2023-02-22T02:26:57;18.30;;;7.87;;
9675;SDS011;4876;42.656;23.292;2023-02-22T02:32:44;14.37;;;8.17;;
9675;SDS011;4876;42.656;23.292;2023-02-22T02:35:18;13.13;;;7.77;;
9675;SDS011;4876;42.656;23.292;2023-02-22T02:37:55;14.57;;;7.37;;
9675;SDS011;4876;42.656;23.292;2023-02-22T02:40:29;13.87;;;8.20;;
9675;SDS011;4876;42.656;23.292;2023-02-22T02:43:03;10.60;;;6.73;;
9675;SDS011;4876;42.656;23.292;2023-02-22T02:45:38;16.33;;;7.20;;
9675;SDS011;4876;42.656;23.292;2023-02-22T02:48:13;19.67;;;7.83;;
9675;SDS011;4876;42.656;23.292;2023-02-22T02:50:43;14.87;;;8.00;;
9675;SDS011;4876;42.656;23.292;2023-02-22T02:53:14;13.43;;;7.10;;
9675;SDS011;4876;42.656;23.292;2023-02-22T02:55:43;17.67;;;8.33;;
9675;SDS011;4876;42.656;23.292;2023-02-22T02:58:15;15.43;;;7.40;;
9675;SDS011;4876;42.656;23.292;2023-02-22T03:00:44;17.27;;;8.20;;
9675;SDS011;4876;42.656;23.292;2023-02-22T03:03:18;10.43;;;7.17;;
9675;SDS011;4876;42.656;23.292;2023-02-22T03:06:06;14.23;;;7.87;;
9675;SDS011;4876;42.656;23.292;2023-02-22T03:08:48;9.60;;;6.70;;
9675;SDS011;4876;42.656;23.292;2023-02-22T03:11:20;19.17;;;6.67;;
9675;SDS011;4876;42.656;23.292;2023-02-22T03:13:52;11.13;;;5.97;;
9675;SDS011;4876;42.656;23.292;2023-02-22T03:16:29;8.70;;;5.03;;
9675;SDS011;4876;42.656;23.292;2023-02-22T03:19:16;9.53;;;5.40;;
9675;SDS011;4876;42.656;23.292;2023-02-22T03:21:48;8.17;;;5.07;;
9675;SDS011;4876;42.656;23.292;2023-02-22T03:24:21;10.13;;;5.47;;
9675;SDS011;4876;42.656;23.292;2023-02-22T03:26:56;10.67;;;5.97;;
9675;SDS011;4876;42.656;23.292;2023-02-22T03:29:27;11.00;;;5.67;;
9675;SDS011;4876;42.656;23.292;2023-02-22T03:32:00;8.73;;;5.33;;
9675;SDS011;4876;42.656;23.292;2023-02-22T03:34:32;9.17;;;6.70;;
9675;SDS011;4876;42.656;23.292;2023-02-22T03:37:06;13.03;;;5.30;;
9675;SDS011;4876;42.656;23.292;2023-02-22T03:39:38;11.17;;;5.90;;
9675;SDS011;4876;42.656;23.292;2023-02-22T03:42:07;11.47;;;5.67;;
9675;SDS011;4876;42.656;23.292;2023-02-22T03:44:39;12.67;;;6.10;;
9675;SDS011;4876;42.656;23.292;2023-02-22T03:47:10;10.10;;;5.20;;
9675;SDS011;4876;42.656;23.292;2023-02-22T03:49:43;14.10;;;5.93;;
9675;SDS011;4876;42.656;23.292;2023-02-22T03:52:17;9.07;;;5.57;;
9675;SDS011;4876;42.656;23.292;2023-02-22T03:54:47;11.40;;;5.00;;
9675;SDS011;4876;42.656;23.292;2023-02-22T03:57:19;11.53;;;4.87;;
9675;SDS011;4876;42.656;23.292;2023-02-22T03:59:51;10.40;;;4.83;;
9675;SDS011;4876;42.656;23.292;2023-02-22T04:02:18;6.07;;;4.53;;
9675;SDS011;4876;42.656;23.292;2023-02-22T04:04:49;9.83;;;4.57;;
9675;SDS011;4876;42.656;23.292;2023-02-22T04:07:16;10.30;;;5.07;;
9675;SDS011;4876;42.656;23.292;2023-02-22T04:09:43;8.20;;;4.43;;
9675;SDS011;4876;42.656;23.292;2023-02-22T04:12:10;9.17;;;4.27;;
9675;SDS011;4876;42.656;23.292;2023-02-22T04:14:37;7.90;;;3.63;;
9675;SDS011;4876;42.656;23.292;2023-02-22T04:17:04;8.07;;;4.57;;
9675;SDS011;4876;42.656;23.292;2023-02-22T04:19:31;5.67;;;3.67;;
9675;SDS011;4876;42.656;23.292;2023-02-22T04:21:59;8.23;;;3.70;;
9675;SDS011;4876;42.656;23.292;2023-02-22T04:24:26;7.77;;;3.20;;
9675;SDS011;4876;42.656;23.292;2023-02-22T04:26:53;4.53;;;3.17;;
9675;SDS011;4876;42.656;23.292;2023-02-22T04:29:20;4.80;;;2.80;;
9675;SDS011;4876;42.656;23.292;2023-02-22T04:31:47;4.97;;;3.27;;
9675;SDS011;4876;42.656;23.292;2023-02-22T04:34:14;9.53;;;4.57;;
9675;SDS011;4876;42.656;23.292;2023-02-22T04:36:41;7.30;;;4.73;;
9675;SDS011;4876;42.656;23.292;2023-02-22T04:39:10;7.43;;;4.13;;
9675;SDS011;4876;42.656;23.292;2023-02-22T04:41:37;9.93;;;4.73;;
9675;SDS011;4876;42.656;23.292;2023-02-22T04:44:04;17.37;;;6.20;;
9675;SDS011;4876;42.656;23.292;2023-02-22T04:46:31;12.20;;;7.03;;
9675;SDS011;4876;42.656;23.292;2023-02-22T04:48:57;14.13;;;6.83;;
9675;SDS011;4876;42.656;23.292;2023-02-22T04:51:24;15.10;;;6.37;;
9675;SDS011;4876;42.656;23.292;2023-02-22T04:53:51;15.73;;;6.77;;
9675;SDS011;4876;42.656;23.292;2023-02-22T04:56:19;10.33;;;6.27;;
9675;SDS011;4876;42.656;23.292;2023-02-22T04:58:46;16.23;;;6.40;;
9675;SDS011;4876;42.656;23.292;2023-02-22T05:01:13;16.27;;;6.73;;
9675;SDS011;4876;42.656;23.292;2023-02-22T05:03:40;12.27;;;6.60;;
9675;SDS011;4876;42.656;23.292;2023-02-22T05:06:07;10.87;;;6.57;;
9675;SDS011;4876;42.656;23.292;2023-02-22T05:08:36;14.30;;;6.43;;
9675;SDS011;4876;42.656;23.292;2023-02-22T05:11:03;11.87;;;7.40;;
9675;SDS011;4876;42.656;23.292;2023-02-22T05:13:32;12.20;;;8.23;;
9675;SDS011;4876;42.656;23.292;2023-02-22T05:15:58;15.87;;;8.50;;
9675;SDS011;4876;42.656;23.292;2023-02-22T05:18:25;15.33;;;8.77;;
9675;SDS011;4876;42.656;23.292;2023-02-22T05:20:53;13.30;;;7.93;;
9675;SDS011;4876;42.656;23.292;2023-02-22T05:23:20;16.23;;;8.17;;
9675;SDS011;4876;42.656;23.292;2023-02-22T05:25:47;13.57;;;8.23;;
9675;SDS011;4876;42.656;23.292;2023-02-22T05:28:14;16.97;;;7.83;;
9675;SDS011;4876;42.656;23.292;2023-02-22T05:30:43;14.10;;;8.27;;
9675;SDS011;4876;42.656;23.292;2023-02-22T05:33:10;17.60;;;9.47;;
9675;SDS011;4876;42.656;23.292;2023-02-22T05:35:37;18.27;;;9.53;;
9675;SDS011;4876;42.656;23.292;2023-02-22T05:38:04;20.87;;;9.27;;
9675;SDS011;4876;42.656;23.292;2023-02-22T05:40:31;16.20;;;9.07;;
9675;SDS011;4876;42.656;23.292;2023-02-22T05:42:59;14.00;;;8.30;;
9675;SDS011;4876;42.656;23.292;2023-02-22T05:45:26;14.60;;;8.63;;
9675;SDS011;4876;42.656;23.292;2023-02-22T05:47:55;14.77;;;8.90;;
9675;SDS011;4876;42.656;23.292;2023-02-22T05:50:22;22.00;;;9.50;;
9675;SDS011;4876;42.656;23.292;2023-02-22T05:52:49;15.07;;;8.80;;
9675;SDS011;4876;42.656;23.292;2023-02-22T05:55:17;17.53;;;9.77;;
9675;SDS011;4876;42.656;23.292;2023-02-22T05:57:45;22.03;;;10.20;;
9675;SDS011;4876;42.656;23.292;2023-02-22T06:00:14;23.87;;;9.97;;
9675;SDS011;4876;42.656;23.292;2023-02-22T06:02:44;22.93;;;11.13;;
9675;SDS011;4876;42.656;23.292;2023-02-22T06:05:12;22.00;;;11.57;;
9675;SDS011;4876;42.656;23.292;2023-02-22T06:07:39;20.20;;;11.33;;
9675;SDS011;4876;42.656;23.292;2023-02-22T06:10:06;19.97;;;12.00;;
9675;SDS011;4876;42.656;23.292;2023-02-22T06:12:33;24.80;;;13.17;;
9675;SDS011;4876;42.656;23.292;2023-02-22T06:15:00;24.77;;;13.13;;
9675;SDS011;4876;42.656;23.292;2023-02-22T06:17:27;26.97;;;14.20;;
9675;SDS011;4876;42.656;23.292;2023-02-22T06:19:54;30.27;;;12.60;;
9675;SDS011;4876;42.656;23.292;2023-02-22T06:22:22;26.80;;;13.37;;
9675;SDS011;4876;42.656;23.292;2023-02-22T06:24:49;27.43;;;13.77;;
9675;SDS011;4876;42.656;23.292;2023-02-22T06:27:16;25.30;;;13.10;;
9675;SDS011;4876;42.656;23.292;2023-02-22T06:29:43;32.80;;;13.83;;
9675;SDS011;4876;42.656;23.292;2023-02-22T06:32:11;52.10;;;15.80;;
9675;SDS011;4876;42.656;23.292;2023-02-22T06:34:38;30.27;;;12.50;;
9675;SDS011;4876;42.656;23.292;2023-02-22T06:37:06;39.13;;;12.47;;
9675;SDS011;4876;42.656;23.292;2023-02-22T06:39:34;38.20;;;11.20;;
9675;SDS011;4876;42.656;23.292;2023-02-22T06:42:01;23.70;;;10.80;;
9675;SDS011;4876;42.656;23.292;2023-02-22T06:44:28;25.47;;;10.90;;
9675;SDS011;4876;42.656;23.292;2023-02-22T06:46:55;29.23;;;10.27;;
9675;SDS011;4876;42.656;23.292;2023-02-22T06:49:24;29.33;;;11.10;;
9675;SDS011;4876;42.656;23.292;2023-02-22T06:51:52;24.20;;;11.33;;
9675;SDS011;4876;42.656;23.292;2023-02-22T06:54:19;25.73;;;11.43;;
9675;SDS011;4876;42.656;23.292;2023-02-22T06:56:47;22.47;;;9.87;;
9675;SDS011;4876;42.656;23.292;2023-02-22T06:59:14;24.63;;;10.73;;
9675;SDS011;4876;42.656;23.292;2023-02-22T07:01:41;28.23;;;11.70;;
9675;SDS011;4876;42.656;23.292;2023-02-22T07:04:08;21.50;;;10.67;;
9675;SDS011;4876;42.656;23.292;2023-02-22T07:06:35;24.90;;;11.30;;
9675;SDS011;4876;42.656;23.292;2023-02-22T07:09:02;29.03;;;12.07;;
9675;SDS011;4876;42.656;23.292;2023-02-22T07:11:29;26.60;;;12.47;;
9675;SDS011;4876;42.656;23.292;2023-02-22T07:13:57;29.07;;;13.77;;
9675;SDS011;4876;42.656;23.292;2023-02-22T07:16:24;32.33;;;12.20;;
9675;SDS011;4876;42.656;23.292;2023-02-22T07:18:51;28.77;;;12.60;;
9675;SDS011;4876;42.656;23.292;2023-02-22T07:21:17;34.27;;;13.00;;
9675;SDS011;4876;42.656;23.292;2023-02-22T07:23:49;31.13;;;13.73;;
9675;SDS011;4876;42.656;23.292;2023-02-22T07:26:17;27.03;;;12.20;;
9675;SDS011;4876;42.656;23.292;2023-02-22T07:28:44;19.17;;;11.93;;
9675;SDS011;4876;42.656;23.292;2023-02-22T07:31:12;33.63;;;13.63;;
9675;SDS011;4876;42.656;23.292;2023-02-22T07:33:39;26.37;;;11.77;;
9675;SDS011;4876;42.656;23.292;2023-02-22T07:36:06;22.47;;;11.00;;
9675;SDS011;4876;42.656;23.292;2023-02-22T07:38:34;31.37;;;12.03;;
9675;SDS011;4876;42.656;23.292;2023-02-22T07:41:00;19.57;;;10.77;;
9675;SDS011;4876;42.656;23.292;2023-02-22T07:43:27;31.37;;;11.27;;
9675;SDS011;4876;42.656;23.292;2023-02-22T07:45:56;19.00;;;11.27;;
9675;SDS011;4876;42.656;23.292;2023-02-22T07:48:26;20.63;;;11.93;;
9675;SDS011;4876;42.656;23.292;2023-02-22T07:50:54;27.67;;;12.67;;
9675;SDS011;4876;42.656;23.292;2023-02-22T07:53:21;39.47;;;14.10;;
9675;SDS011;4876;42.656;23.292;2023-02-22T07:55:50;46.43;;;13.47;;
9675;SDS011;4876;42.656;23.292;2023-02-22T07:58:18;39.43;;;12.73;;
9675;SDS011;4876;42.656;23.292;2023-02-22T08:00:46;30.17;;;12.27;;
9675;SDS011;4876;42.656;23.292;2023-02-22T08:03:15;34.67;;;12.63;;
9675;SDS011;4876;42.656;23.292;2023-02-22T08:05:45;30.23;;;13.13;;
9675;SDS011;4876;42.656;23.292;2023-02-22T08:08:14;21.23;;;12.30;;
9675;SDS011;4876;42.656;23.292;2023-02-22T08:10:42;23.30;;;10.87;;
9675;SDS011;4876;42.656;23.292;2023-02-22T08:13:09;17.60;;;9.87;;
9675;SDS011;4876;42.656;23.292;2023-02-22T08:15:37;20.97;;;10.37;;
9675;SDS011;4876;42.656;23.292;2023-02-22T08:18:06;23.83;;;10.27;;
9675;SDS011;4876;42.656;23.292;2023-02-22T08:20:34;27.13;;;11.07;;
9675;SDS011;4876;42.656;23.292;2023-02-22T08:23:03;24.93;;;12.10;;
9675;SDS011;4876;42.656;23.292;2023-02-22T08:25:31;25.23;;;9.97;;
9675;SDS011;4876;42.656;23.292;2023-02-22T08:27:59;26.30;;;10.20;;
9675;SDS011;4876;42.656;23.292;2023-02-22T08:30:28;34.40;;;10.50;;
9675;SDS011;4876;42.656;23.292;2023-02-22T08:32:56;23.30;;;10.93;;
9675;SDS011;4876;42.656;23.292;2023-02-22T08:35:23;26.83;;;12.00;;
9675;SDS011;4876;42.656;23.292;2023-02-22T08:37:52;22.47;;;11.13;;
9675;SDS011;4876;42.656;23.292;2023-02-22T08:40:23;31.77;;;11.40;;
9675;SDS011;4876;42.656;23.292;2023-02-22T08:42:51;22.73;;;10.43;;
9675;SDS011;4876;42.656;23.292;2023-02-22T08:45:18;31.70;;;11.90;;
9675;SDS011;4876;42.656;23.292;2023-02-22T08:47:46;21.30;;;11.63;;
9675;SDS011;4876;42.656;23.292;2023-02-22T08:50:14;20.63;;;11.07;;
9675;SDS011;4876;42.656;23.292;2023-02-22T08:52:43;27.13;;;12.23;;
9675;SDS011;4876;42.656;23.292;2023-02-22T08:55:10;17.67;;;11.30;;
9675;SDS011;4876;42.656;23.292;2023-02-22T08:57:38;24.10;;;11.53;;
9675;SDS011;4876;42.656;23.292;2023-02-22T09:00:05;20.10;;;9.80;;
9675;SDS011;4876;42.656;23.292;2023-02-22T09:02:33;17.30;;;9.70;;
9675;SDS011;4876;42.656;23.292;2023-02-22T09:05:00;13.53;;;7.73;;
9675;SDS011;4876;42.656;23.292;2023-02-22T09:07:27;18.43;;;9.63;;
9675;SDS011;4876;42.656;23.292;2023-02-22T09:09:53;23.10;;;10.70;;
9675;SDS011;4876;42.656;23.292;2023-02-22T09:12:20;19.30;;;9.43;;
9675;SDS011;4876;42.656;23.292;2023-02-22T09:14:48;16.13;;;9.07;;
9675;SDS011;4876;42.656;23.292;2023-02-22T09:17:15;16.33;;;8.83;;
9675;SDS011;4876;42.656;23.292;2023-02-22T09:19:42;21.67;;;8.30;;
9675;SDS011;4876;42.656;23.292;2023-02-22T09:22:09;18.87;;;7.70;;
9675;SDS011;4876;42.656;23.292;2023-02-22T09:24:36;12.47;;;5.87;;
9675;SDS011;4876;42.656;23.292;2023-02-22T09:27:03;9.87;;;5.13;;
9675;SDS011;4876;42.656;23.292;2023-02-22T09:29:32;10.17;;;5.20;;
9675;SDS011;4876;42.656;23.292;2023-02-22T09:32:00;8.90;;;4.77;;
9675;SDS011;4876;42.656;23.292;2023-02-22T09:34:28;10.20;;;5.17;;
9675;SDS011;4876;42.656;23.292;2023-02-22T09:36:55;9.60;;;5.23;;
9675;SDS011;4876;42.656;23.292;2023-02-22T09:39:22;9.57;;;4.87;;
9675;SDS011;4876;42.656;23.292;2023-02-22T09:41:50;14.90;;;5.23;;
9675;SDS011;4876;42.656;23.292;2023-02-22T09:44:27;5.37;;;3.77;;
9675;SDS011;4876;42.656;23.292;2023-02-22T09:47:02;8.77;;;3.77;;
9675;SDS011;4876;42.656;23.292;2023-02-22T09:49:36;6.43;;;4.30;;
9675;SDS011;4876;42.656;23.292;2023-02-22T09:52:07;6.70;;;3.87;;
9675;SDS011;4876;42.656;23.292;2023-02-22T09:54:39;9.07;;;4.03;;
9675;SDS011;4876;42.656;23.292;2023-02-22T09:57:17;6.17;;;3.67;;
9675;SDS011;4876;42.656;23.292;2023-02-22T09:59:52;10.87;;;4.40;;
9675;SDS011;4876;42.656;23.292;2023-02-22T10:02:38;6.00;;;3.80;;
9675;SDS011;4876;42.656;23.292;2023-02-22T10:05:13;4.57;;;3.53;;
9675;SDS011;4876;42.656;23.292;2023-02-22T10:07:45;8.10;;;4.17;;
9675;SDS011;4876;42.656;23.292;2023-02-22T10:10:17;7.80;;;3.87;;
9675;SDS011;4876;42.656;23.292;2023-02-22T10:12:47;6.07;;;3.60;;
9675;SDS011;4876;42.656;23.292;2023-02-22T10:18:27;7.40;;;4.83;;
9675;SDS011;4876;42.656;23.292;2023-02-22T10:21:06;6.73;;;3.80;;
9675;SDS011;4876;42.656;23.292;2023-02-22T10:23:43;9.83;;;4.40;;
9675;SDS011;4876;42.656;23.292;2023-02-22T10:26:19;6.63;;;4.70;;
9675;SDS011;4876;42.656;23.292;2023-02-22T10:28:51;10.53;;;4.40;;
9675;SDS011;4876;42.656;23.292;2023-02-22T10:31:22;13.17;;;4.33;;
9675;SDS011;4876;42.656;23.292;2023-02-22T10:33:54;9.07;;;4.33;;
9675;SDS011;4876;42.656;23.292;2023-02-22T10:36:25;7.03;;;4.07;;
9675;SDS011;4876;42.656;23.292;2023-02-22T10:38:53;6.90;;;3.23;;
9675;SDS011;4876;42.656;23.292;2023-02-22T10:41:25;11.03;;;4.33;;
9675;SDS011;4876;42.656;23.292;2023-02-22T10:43:54;6.30;;;3.80;;
9675;SDS011;4876;42.656;23.292;2023-02-22T10:46:22;7.03;;;3.70;;
9675;SDS011;4876;42.656;23.292;2023-02-22T10:48:58;6.73;;;3.63;;
9675;SDS011;4876;42.656;23.292;2023-02-22T10:51:36;6.07;;;4.03;;
9675;SDS011;4876;42.656;23.292;2023-02-22T10:54:13;6.00;;;4.03;;
9675;SDS011;4876;42.656;23.292;2023-02-22T10:56:51;7.30;;;3.80;;
9675;SDS011;4876;42.656;23.292;2023-02-22T10:59:28;10.70;;;3.50;;
9675;SDS011;4876;42.656;23.292;2023-02-22T11:01:58;6.37;;;3.40;;
9675;SDS011;4876;42.656;23.292;2023-02-22T11:04:27;6.17;;;3.50;;
9675;SDS011;4876;42.656;23.292;2023-02-22T11:07:17;3.80;;;3.17;;
9675;SDS011;4876;42.656;23.292;2023-02-22T11:09:47;8.80;;;3.30;;
9675;SDS011;4876;42.656;23.292;2023-02-22T11:12:17;4.30;;;2.90;;
9675;SDS011;4876;42.656;23.292;2023-02-22T11:14:46;8.40;;;2.73;;
9675;SDS011;4876;42.656;23.292;2023-02-22T11:17:15;9.97;;;2.93;;
9675;SDS011;4876;42.656;23.292;2023-02-22T11:19:49;6.00;;;3.67;;
9675;SDS011;4876;42.656;23.292;2023-02-22T11:22:20;8.13;;;3.47;;
9675;SDS011;4876;42.656;23.292;2023-02-22T11:24:49;6.30;;;3.40;;
9675;SDS011;4876;42.656;23.292;2023-02-22T11:27:27;10.73;;;3.57;;
9675;SDS011;4876;42.656;23.292;2023-02-22T11:30:06;11.27;;;4.20;;
9675;SDS011;4876;42.656;23.292;2023-02-22T11:32:41;6.40;;;3.33;;
9675;SDS011;4876;42.656;23.292;2023-02-22T11:38:09;4.17;;;3.00;;
9675;SDS011;4876;42.656;23.292;2023-02-22T11:40:41;4.83;;;3.40;;
9675;SDS011;4876;42.656;23.292;2023-02-22T11:43:08;9.80;;;4.07;;
9675;SDS011;4876;42.656;23.292;2023-02-22T11:45:47;4.47;;;2.80;;
9675;SDS011;4876;42.656;23.292;2023-02-22T11:48:24;3.63;;;2.70;;
9675;SDS011;4876;42.656;23.292;2023-02-22T11:50:58;4.53;;;2.77;;
9675;SDS011;4876;42.656;23.292;2023-02-22T11:53:40;6.13;;;2.80;;
9675;SDS011;4876;42.656;23.292;2023-02-22T11:56:15;3.37;;;2.40;;
9675;SDS011;4876;42.656;23.292;2023-02-22T11:58:45;3.00;;;2.50;;
9675;SDS011;4876;42.656;23.292;2023-02-22T12:01:18;4.30;;;2.47;;
9675;SDS011;4876;42.656;23.292;2023-02-22T12:07:09;5.97;;;2.90;;
9675;SDS011;4876;42.656;23.292;2023-02-22T12:09:46;3.07;;;2.50;;
9675;SDS011;4876;42.656;23.292;2023-02-22T12:12:20;3.40;;;2.53;;
9675;SDS011;4876;42.656;23.292;2023-02-22T12:14:54;3.50;;;2.40;;
9675;SDS011;4876;42.656;23.292;2023-02-22T12:17:31;3.90;;;2.57;;
9675;SDS011;4876;42.656;23.292;2023-02-22T12:20:08;2.50;;;2.17;;
9675;SDS011;4876;42.656;23.292;2023-02-22T12:22:51;7.57;;;2.80;;
9675;SDS011;4876;42.656;23.292;2023-02-22T12:25:24;9.60;;;2.30;;
9675;SDS011;4876;42.656;23.292;2023-02-22T12:27:54;6.20;;;2.87;;
9675;SDS011;4876;42.656;23.292;2023-02-22T12:30:25;5.60;;;2.90;;
9675;SDS011;4876;42.656;23.292;2023-02-22T12:32:56;4.63;;;2.50;;
9675;SDS011;4876;42.656;23.292;2023-02-22T12:35:26;3.63;;;2.23;;
9675;SDS011;4876;42.656;23.292;2023-02-22T12:38:02;6.43;;;2.90;;
9675;SDS011;4876;42.656;23.292;2023-02-22T12:40:36;4.97;;;2.80;;
9675;SDS011;4876;42.656;23.292;2023-02-22T12:43:12;8.50;;;3.30;;
9675;SDS011;4876;42.656;23.292;2023-02-22T12:45:46;4.53;;;3.00;;
9675;SDS011;4876;42.656;23.292;2023-02-22T12:48:21;4.43;;;3.30;;
9675;SDS011;4876;42.656;23.292;2023-02-22T12:50:57;5.77;;;3.20;;
9675;SDS011;4876;42.656;23.292;2023-02-22T12:53:30;4.37;;;3.00;;
9675;SDS011;4876;42.656;23.292;2023-02-22T12:56:03;4.27;;;3.10;;
9675;SDS011;4876;42.656;23.292;2023-02-22T12:58:45;6.57;;;3.70;;
9675;SDS011;4876;42.656;23.292;2023-02-22T13:01:18;5.73;;;3.40;;
9675;SDS011;4876;42.656;23.292;2023-02-22T13:03:48;4.70;;;3.13;;
9675;SDS011;4876;42.656;23.292;2023-02-22T13:06:21;3.80;;;2.80;;
9675;SDS011;4876;42.656;23.292;2023-02-22T13:09:03;7.57;;;3.50;;
9675;SDS011;4876;42.656;23.292;2023-02-22T13:11:39;7.00;;;4.30;;
9675;SDS011;4876;42.656;23.292;2023-02-22T13:14:15;8.17;;;3.53;;
9675;SDS011;4876;42.656;23.292;2023-02-22T13:16:58;5.13;;;3.27;;
9675;SDS011;4876;42.656;23.292;2023-02-22T13:19:34;4.17;;;3.33;;
9675;SDS011;4876;42.656;23.292;2023-02-22T13:22:12;6.63;;;3.40;;
9675;SDS011;4876;42.656;23.292;2023-02-22T13:24:47;7.37;;;3.10;;
9675;SDS011;4876;42.656;23.292;2023-02-22T13:27:25;4.53;;;2.47;;
9675;SDS011;4876;42.656;23.292;2023-02-22T13:29:56;6.07;;;3.40;;
9675;SDS011;4876;42.656;23.292;2023-02-22T13:32:28;4.30;;;2.90;;
9675;SDS011;4876;42.656;23.292;2023-02-22T13:38:04;5.80;;;2.90;;
9675;SDS011;4876;42.656;23.292;2023-02-22T13:40:52;4.43;;;2.90;;
9675;SDS011;4876;42.656;23.292;2023-02-22T13:43:59;6.17;;;2.67;;
9675;SDS011;4876;42.656;23.292;2023-02-22T13:46:45;4.47;;;2.90;;
9675;SDS011;4876;42.656;23.292;2023-02-22T13:49:35;4.07;;;3.00;;
9675;SDS011;4876;42.656;23.292;2023-02-22T13:52:11;3.73;;;2.77;;
9675;SDS011;4876;42.656;23.292;2023-02-22T13:54:43;6.03;;;3.83;;
9675;SDS011;4876;42.656;23.292;2023-02-22T13:57:20;5.33;;;3.60;;
9675;SDS011;4876;42.656;23.292;2023-02-22T13:59:57;4.00;;;3.47;;
9675;SDS011;4876;42.656;23.292;2023-02-22T14:02:57;6.10;;;3.00;;
9675;SDS011;4876;42.656;23.292;2023-02-22T14:05:42;6.67;;;3.67;;
9675;SDS011;4876;42.656;23.292;2023-02-22T14:14:22;6.90;;;3.03;;
9675;SDS011;4876;42.656;23.292;2023-02-22T14:20:05;13.90;;;3.47;;
9675;SDS011;4876;42.656;23.292;2023-02-22T14:22:46;4.83;;;3.43;;
9675;SDS011;4876;42.656;23.292;2023-02-22T14:25:36;4.00;;;3.50;;
9675;SDS011;4876;42.656;23.292;2023-02-22T14:28:06;5.43;;;3.77;;
9675;SDS011;4876;42.656;23.292;2023-02-22T14:30:37;4.53;;;3.40;;
9675;SDS011;4876;42.656;23.292;2023-02-22T14:36:05;6.57;;;3.40;;
9675;SDS011;4876;42.656;23.292;2023-02-22T14:38:32;5.00;;;3.80;;
9675;SDS011;4876;42.656;23.292;2023-02-22T14:40:59;6.97;;;4.17;;
9675;SDS011;4876;42.656;23.292;2023-02-22T14:43:28;11.40;;;4.00;;
9675;SDS011;4876;42.656;23.292;2023-02-22T14:45:57;6.60;;;4.20;;
9675;SDS011;4876;42.656;23.292;2023-02-22T14:48:29;7.43;;;4.33;;
9675;SDS011;4876;42.656;23.292;2023-02-22T14:51:04;6.27;;;4.27;;
9675;SDS011;4876;42.656;23.292;2023-02-22T14:53:39;6.77;;;4.53;;
9675;SDS011;4876;42.656;23.292;2023-02-22T14:56:14;5.03;;;4.20;;
9675;SDS011;4876;42.656;23.292;2023-02-22T14:58:47;4.97;;;4.20;;
9675;SDS011;4876;42.656;23.292;2023-02-22T15:01:25;15.20;;;4.70;;
9675;SDS011;4876;42.656;23.292;2023-02-22T15:03:57;5.83;;;4.30;;
9675;SDS011;4876;42.656;23.292;2023-02-22T15:06:41;6.67;;;4.00;;
9675;SDS011;4876;42.656;23.292;2023-02-22T15:09:10;5.83;;;4.57;;
9675;SDS011;4876;42.656;23.292;2023-02-22T15:11:47;7.97;;;3.87;;
9675;SDS011;4876;42.656;23.292;2023-02-22T15:14:16;6.43;;;4.13;;
9675;SDS011;4876;42.656;23.292;2023-02-22T15:16:47;5.43;;;4.33;;
9675;SDS011;4876;42.656;23.292;2023-02-22T15:19:18;8.73;;;4.43;;
9675;SDS011;4876;42.656;23.292;2023-02-22T15:21:50;7.77;;;4.93;;
9675;SDS011;4876;42.656;23.292;2023-02-22T15:24:20;6.90;;;5.47;;
9675;SDS011;4876;42.656;23.292;2023-02-22T15:26:49;12.37;;;5.17;;
9675;SDS011;4876;42.656;23.292;2023-02-22T15:29:17;7.60;;;4.70;;
9675;SDS011;4876;42.656;23.292;2023-02-22T15:31:48;10.93;;;4.77;;
9675;SDS011;4876;42.656;23.292;2023-02-22T15:34:17;11.53;;;5.57;;
9675;SDS011;4876;42.656;23.292;2023-02-22T15:36:48;8.43;;;4.90;;
9675;SDS011;4876;42.656;23.292;2023-02-22T15:39:19;13.13;;;5.37;;
9675;SDS011;4876;42.656;23.292;2023-02-22T15:41:59;5.30;;;4.63;;
9675;SDS011;4876;42.656;23.292;2023-02-22T15:44:35;14.27;;;5.33;;
9675;SDS011;4876;42.656;23.292;2023-02-22T15:47:04;10.10;;;5.50;;